Time;durP1;ratioP1;P1;durP2;ratioP2;P2;SDS_P1;SDS_P2;PMS_P1;PMS_P2;Temp;Humidity;BMP_temperature;BMP_pressure;BME280_temperature;BME280_humidity;BME280_pressure;Samples;Min_cycle;Max_cycle;Signal;HPM_P1;HPM_P2
2022/04/16 00:00:06;;;;;;;17.90;13.48;;;;;;;-155.54;100.00;57697.75;5003332;28;20117;-66
2022/04/16 00:02:31;;;;;;;21.48;16.35;;;;;;;-155.54;100.00;57697.75;5010764;28;20082;-67
2022/04/16 00:04:57;;;;;;;31.60;24.05;;;;;;;-155.54;100.00;57697.75;5014092;28;20567;-68
2022/04/16 00:07:22;;;;;;;26.10;18.95;;;;;;;-155.54;100.00;57697.75;5009585;28;20114;-67
2022/04/16 00:09:48;;;;;;;17.15;12.32;;;;;;;-155.54;100.00;57697.75;5007714;28;20086;-65
2022/04/16 00:12:13;;;;;;;8.98;7.07;;;;;;;-155.54;100.00;57697.75;5009982;28;20112;-66
2022/04/16 00:14:39;;;;;;;22.45;16.58;;;;;;;-155.54;100.00;57697.75;5009868;28;20086;-65
2022/04/16 00:17:05;;;;;;;3.95;3.25;;;;;;;-155.54;100.00;57697.75;5022419;28;20098;-66
2022/04/16 00:19:31;;;;;;;14.43;9.60;;;;;;;-155.54;100.00;57697.75;5021985;28;20117;-66
2022/04/16 00:21:57;;;;;;;15.20;11.50;;;;;;;-155.54;100.00;57697.75;5022707;28;20081;-67
2022/04/16 00:24:22;;;;;;;21.55;16.38;;;;;;;-155.54;100.00;57697.75;5022287;28;20106;-65
2022/04/16 00:26:50;;;;;;;28.73;22.08;;;;;;;-155.54;100.00;57697.75;5019250;28;21589;-65
2022/04/16 00:29:15;;;;;;;6.95;5.25;;;;;;;-155.54;100.00;57697.75;5002618;28;20180;-65
2022/04/16 00:31:42;;;;;;;9.57;7.13;;;;;;;-155.54;100.00;57697.75;5022009;28;20599;-67
2022/04/16 00:34:07;;;;;;;14.75;10.40;;;;;;;-155.54;100.00;57697.75;5041823;28;20443;-66
2022/04/16 00:36:32;;;;;;;13.93;10.65;;;;;;;-155.54;100.00;57697.75;5041606;28;20114;-65
2022/04/16 00:38:58;;;;;;;13.20;10.05;;;;;;;-155.54;100.00;57697.75;5017377;28;20383;-65
2022/04/16 00:41:23;;;;;;;11.18;8.43;;;;;;;-155.54;100.00;57697.75;5002292;28;20364;-66
2022/04/16 00:43:52;;;;;;;15.50;11.25;;;;;;;-155.54;100.00;57697.75;5023378;28;20113;-65
2022/04/16 00:46:17;;;;;;;12.00;9.05;;;;;;;-155.54;100.00;57697.75;5041929;28;20091;-66
2022/04/16 00:48:42;;;;;;;27.83;22.25;;;;;;;-155.54;100.00;57697.75;4997655;28;20489;-64
2022/04/16 00:51:08;;;;;;;25.73;20.10;;;;;;;-155.54;100.00;57697.75;5002061;28;20128;-65
2022/04/16 00:53:34;;;;;;;21.92;16.02;;;;;;;-155.54;100.00;57697.75;5002452;28;20086;-64
2022/04/16 00:56:00;;;;;;;13.82;9.52;;;;;;;-155.54;100.00;57697.75;5025415;28;20104;-64
2022/04/16 00:58:26;;;;;;;23.73;16.98;;;;;;;-155.54;100.00;57697.75;5018757;28;20110;-65
2022/04/16 01:00:51;;;;;;;29.13;23.25;;;;;;;-155.54;100.00;57697.75;4981500;28;20137;-66
2022/04/16 01:03:17;;;;;;;20.65;16.02;;;;;;;-155.54;100.00;57697.75;4983463;28;20106;-67
2022/04/16 01:05:43;;;;;;;13.85;9.82;;;;;;;-155.54;100.00;57697.75;5004410;28;20086;-64
2022/04/16 01:08:08;;;;;;;22.63;17.55;;;;;;;-155.54;100.00;57697.75;4996843;28;20327;-66
2022/04/16 01:10:34;;;;;;;15.48;11.57;;;;;;;-155.54;100.00;57697.75;4988506;28;20086;-65
2022/04/16 01:13:01;;;;;;;19.98;15.45;;;;;;;-155.54;100.00;57697.75;5001548;28;20322;-64
2022/04/16 01:15:30;;;;;;;18.58;14.65;;;;;;;-155.54;100.00;57697.75;4988778;28;20163;-67
2022/04/16 01:17:56;;;;;;;11.18;8.60;;;;;;;-155.54;100.00;57697.75;5002429;28;20097;-65
2022/04/16 01:20:22;;;;;;;16.83;12.60;;;;;;;-155.54;100.00;57697.75;4997046;28;20494;-66
2022/04/16 01:22:48;;;;;;;18.20;13.65;;;;;;;-155.54;100.00;57697.75;5004633;28;20172;-65
2022/04/16 01:25:13;;;;;;;19.92;16.25;;;;;;;-155.54;100.00;57697.75;5014170;28;20089;-65
2022/04/16 01:27:43;;;;;;;18.67;14.73;;;;;;;-155.54;100.00;57697.75;5038973;28;20538;-65
2022/04/16 01:30:22;;;;;;;18.20;14.38;;;;;;;-155.54;100.00;57697.75;5027731;28;20137;-66
2022/04/16 01:32:50;;;;;;;20.33;15.05;;;;;;;-155.54;100.00;57697.75;4995651;28;20160;-64
2022/04/16 01:35:16;;;;;;;22.35;16.85;;;;;;;-155.54;100.00;57697.75;4982199;28;20132;-64
2022/04/16 01:37:41;;;;;;;19.88;14.77;;;;;;;-155.54;100.00;57697.75;4999978;28;20094;-65
2022/04/16 01:40:08;;;;;;;19.83;15.85;;;;;;;-155.54;100.00;57697.75;4984076;28;20418;-65
2022/04/16 01:42:34;;;;;;;21.45;17.38;;;;;;;-155.54;100.00;57697.75;4997933;28;20164;-66
2022/04/16 01:45:00;;;;;;;23.50;17.60;;;;;;;-155.54;100.00;57697.75;4993429;28;20079;-66
2022/04/16 01:47:27;;;;;;;23.65;18.85;;;;;;;-155.54;100.00;57697.75;4995919;28;20110;-65
2022/04/16 01:49:53;;;;;;;22.88;17.55;;;;;;;-155.54;100.00;57697.75;4991139;28;20571;-64
2022/04/16 01:52:18;;;;;;;21.73;14.27;;;;;;;-155.54;100.00;57697.75;5001014;28;20133;-66
2022/04/16 01:54:44;;;;;;;18.98;15.38;;;;;;;-155.54;100.00;57697.75;4989314;28;20082;-65
2022/04/16 01:57:09;;;;;;;20.52;15.93;;;;;;;-155.54;100.00;57697.75;5001887;28;20506;-66
2022/04/16 01:59:34;;;;;;;18.55;12.88;;;;;;;-155.54;100.00;57697.75;4989428;28;20172;-65
2022/04/16 02:02:00;;;;;;;19.52;15.57;;;;;;;-155.54;100.00;57697.75;5006412;28;20082;-65
2022/04/16 02:04:26;;;;;;;19.88;14.43;;;;;;;-155.54;100.00;57697.75;5003588;28;20607;-65
2022/04/16 02:06:52;;;;;;;18.08;14.30;;;;;;;-155.54;100.00;57697.75;5005375;28;20085;-66
2022/04/16 02:09:17;;;;;;;21.60;15.75;;;;;;;-155.54;100.00;57697.75;5003893;28;20086;-66
2022/04/16 02:11:43;;;;;;;11.73;8.38;;;;;;;-155.54;100.00;57697.75;4999076;28;20099;-65
2022/04/16 02:14:09;;;;;;;14.50;11.88;;;;;;;-155.54;100.00;57697.75;4998434;28;20082;-65
2022/04/16 02:16:34;;;;;;;15.80;10.70;;;;;;;-155.54;100.00;57697.75;5003487;28;20145;-67
2022/04/16 02:19:00;;;;;;;14.25;10.60;;;;;;;-155.54;100.00;57697.75;5004931;28;20106;-65
2022/04/16 02:21:26;;;;;;;16.73;11.98;;;;;;;-155.54;100.00;57697.75;5002845;28;20113;-65
2022/04/16 02:23:52;;;;;;;15.82;12.05;;;;;;;-155.54;100.00;57697.75;4994405;28;20106;-66
2022/04/16 02:26:20;;;;;;;17.13;11.93;;;;;;;-155.54;100.00;57697.75;5004599;28;20086;-65
2022/04/16 02:28:47;;;;;;;21.98;16.48;;;;;;;-155.54;100.00;57697.75;5001329;28;20102;-65
2022/04/16 02:31:13;;;;;;;20.95;15.68;;;;;;;-155.54;100.00;57697.75;5004603;28;20121;-64
2022/04/16 02:33:38;;;;;;;22.33;15.80;;;;;;;-155.54;100.00;57697.75;5000076;28;20078;-67
2022/04/16 02:36:05;;;;;;;18.30;14.48;;;;;;;-155.54;100.00;57697.75;5004976;28;20567;-65
2022/04/16 02:38:30;;;;;;;22.60;16.70;;;;;;;-155.54;100.00;57697.75;5000197;28;20574;-67
2022/04/16 02:40:56;;;;;;;24.52;17.33;;;;;;;-155.54;100.00;57697.75;4992094;28;20081;-65
2022/04/16 02:43:21;;;;;;;21.92;16.77;;;;;;;-155.54;100.00;57697.75;5004714;28;20102;-65
2022/04/16 02:48:30;;;;;;;18.83;14.65;;;;;;;-155.54;100.00;57697.75;4988644;28;20157;-66
2022/04/16 02:50:56;;;;;;;17.00;12.82;;;;;;;-155.54;100.00;57697.75;4996123;28;20114;-64
2022/04/16 02:53:22;;;;;;;19.73;14.65;;;;;;;-155.54;100.00;57697.75;4998995;28;20443;-66
2022/04/16 02:55:48;;;;;;;16.85;12.70;;;;;;;-155.54;100.00;57697.75;5018003;28;20101;-65
2022/04/16 02:58:13;;;;;;;17.77;13.68;;;;;;;-155.54;100.00;57697.75;5035575;28;20618;-65
2022/04/16 03:00:40;;;;;;;19.10;14.05;;;;;;;-155.54;100.00;57697.75;4987084;28;20118;-64
2022/04/16 03:03:06;;;;;;;15.63;11.88;;;;;;;-155.54;100.00;57697.75;4986931;28;20176;-65
2022/04/16 03:05:32;;;;;;;20.33;14.95;;;;;;;-155.54;100.00;57697.75;5004901;28;20074;-64
2022/04/16 03:07:57;;;;;;;17.40;12.25;;;;;;;-155.54;100.00;57697.75;5002618;28;20164;-66
2022/04/16 03:10:23;;;;;;;19.95;15.18;;;;;;;-155.54;100.00;57697.75;4992148;28;20207;-64
2022/04/16 03:12:51;;;;;;;14.45;9.75;;;;;;;-155.54;100.00;57697.75;4995154;28;20113;-64
2022/04/16 03:18:00;;;;;;;16.40;12.65;;;;;;;-155.54;100.00;57697.75;5000913;28;20147;-64
2022/04/16 03:20:29;;;;;;;16.98;11.18;;;;;;;-155.54;100.00;57697.75;4994249;28;20156;-66
2022/04/16 03:22:57;;;;;;;16.50;13.10;;;;;;;-155.54;100.00;57697.75;4999988;28;20082;-65
2022/04/16 03:25:23;;;;;;;16.80;13.30;;;;;;;-155.54;100.00;57697.75;5002679;28;20079;-64
2022/04/16 03:27:48;;;;;;;17.17;12.25;;;;;;;-155.54;100.00;57697.75;5003729;28;20558;-65
2022/04/16 03:30:14;;;;;;;16.75;12.20;;;;;;;-155.54;100.00;57697.75;4997455;28;20118;-64
2022/04/16 03:32:40;;;;;;;18.48;14.40;;;;;;;-155.54;100.00;57697.75;4984614;28;20580;-65
2022/04/16 03:35:07;;;;;;;14.88;10.35;;;;;;;-155.54;100.00;57697.75;4990402;28;20515;-65
2022/04/16 03:37:35;;;;;;;15.18;11.77;;;;;;;-155.54;100.00;57697.75;5003553;28;20102;-68
2022/04/16 03:40:01;;;;;;;14.20;10.32;;;;;;;-155.54;100.00;57697.75;4996250;28;20104;-67
2022/04/16 03:42:26;;;;;;;15.23;10.93;;;;;;;-155.54;100.00;57697.75;5004078;28;20416;-66
2022/04/16 03:44:51;;;;;;;15.32;11.57;;;;;;;-155.54;100.00;57697.75;4992205;28;20564;-65
2022/04/16 03:47:17;;;;;;;14.73;11.02;;;;;;;-155.54;100.00;57697.75;5000465;28;20102;-68
2022/04/16 03:49:43;;;;;;;16.80;11.95;;;;;;;-155.54;100.00;57697.75;5002041;28;20560;-67
2022/04/16 03:52:08;;;;;;;14.18;10.23;;;;;;;-155.54;100.00;57697.75;5002105;28;20148;-67
2022/04/16 04:00:05;;;;;;;15.70;11.65;;;;;;;-155.54;100.00;57697.75;4994327;28;20199;-67
2022/04/16 04:02:33;;;;;;;15.85;12.15;;;;;;;-155.54;100.00;57697.75;5000989;28;20082;-66
2022/04/16 04:04:58;;;;;;;15.43;11.40;;;;;;;-155.54;100.00;57697.75;5021859;28;20109;-67
2022/04/16 04:07:25;;;;;;;14.18;10.88;;;;;;;-155.54;100.00;57697.75;5015402;28;20543;-67
2022/04/16 04:09:51;;;;;;;16.58;12.77;;;;;;;-155.54;100.00;57697.75;5003684;28;20113;-67
2022/04/16 04:12:16;;;;;;;17.23;11.82;;;;;;;-155.54;100.00;57697.75;5031083;28;20099;-67
2022/04/16 04:14:43;;;;;;;16.48;12.20;;;;;;;-155.54;100.00;57697.75;5016244;28;20585;-65
2022/04/16 04:17:08;;;;;;;15.43;11.40;;;;;;;-155.54;100.00;57697.75;5041943;28;20097;-67
2022/04/16 04:19:41;;;;;;;15.50;10.32;;;;;;;-155.54;100.00;57697.75;5008682;28;20117;-66
2022/04/16 04:22:11;;;;;;;15.45;10.80;;;;;;;-155.54;100.00;57697.75;4991452;28;20529;-67
2022/04/16 04:24:37;;;;;;;12.48;9.68;;;;;;;-155.54;100.00;57697.75;4988698;28;20171;-68
2022/04/16 04:27:03;;;;;;;15.95;10.63;;;;;;;-155.54;100.00;57697.75;5002416;28;20106;-68
2022/04/16 04:29:29;;;;;;;12.90;9.05;;;;;;;-155.54;100.00;57697.75;4994545;28;20169;-68
2022/04/16 04:31:55;;;;;;;13.45;10.02;;;;;;;-155.54;100.00;57697.75;5012698;28;20101;-67
2022/04/16 04:34:21;;;;;;;14.93;10.32;;;;;;;-155.54;100.00;57697.75;5022634;28;20747;-67
2022/04/16 04:36:46;;;;;;;12.75;8.70;;;;;;;-155.54;100.00;57697.75;5039888;28;20105;-68
2022/04/16 04:39:12;;;;;;;14.75;9.48;;;;;;;-155.54;100.00;57697.75;5024625;28;20097;-65
2022/04/16 04:41:38;;;;;;;13.40;9.90;;;;;;;-155.54;100.00;57697.75;5042285;28;20128;-66
2022/04/16 04:44:04;;;;;;;14.30;10.55;;;;;;;-155.54;100.00;57697.75;5006047;28;20110;-67
2022/04/16 04:46:29;;;;;;;14.98;9.98;;;;;;;-155.54;100.00;57697.75;4984988;28;20495;-67
2022/04/16 04:48:55;;;;;;;16.75;10.65;;;;;;;-155.54;100.00;57697.75;5000287;28;20079;-69
2022/04/16 04:51:20;;;;;;;13.73;10.75;;;;;;;-155.54;100.00;57697.75;5008895;28;20159;-67
2022/04/16 04:53:46;;;;;;;14.65;10.20;;;;;;;-155.54;100.00;57697.75;5021818;28;20294;-68
2022/04/16 04:56:11;;;;;;;15.18;10.73;;;;;;;-155.54;100.00;57697.75;5035793;28;20112;-66
2022/04/16 04:58:37;;;;;;;15.38;9.93;;;;;;;-155.54;100.00;57697.75;5035436;28;20105;-67
2022/04/16 05:01:03;;;;;;;19.58;11.38;;;;;;;-155.54;100.00;57697.75;5041925;28;20102;-68
2022/04/16 05:03:29;;;;;;;14.50;10.43;;;;;;;-155.54;100.00;57697.75;5019152;28;20794;-68
2022/04/16 05:05:54;;;;;;;12.85;9.18;;;;;;;-155.54;100.00;57697.75;4983135;28;20091;-66
2022/04/16 05:08:19;;;;;;;13.60;9.63;;;;;;;-155.54;100.00;57697.75;4988780;28;20118;-66
2022/04/16 05:10:45;;;;;;;17.73;9.68;;;;;;;-155.54;100.00;57697.75;5002098;28;20553;-66
2022/04/16 05:13:10;;;;;;;13.48;9.73;;;;;;;-155.54;100.00;57697.75;5001568;28;20283;-68
2022/04/16 05:15:35;;;;;;;11.98;9.13;;;;;;;-155.54;100.00;57697.75;5010956;28;20102;-68
2022/04/16 05:18:01;;;;;;;12.85;8.60;;;;;;;-155.54;100.00;57697.75;5018902;28;20113;-68
2022/04/16 05:20:26;;;;;;;13.23;8.93;;;;;;;-155.54;100.00;57697.75;5020613;28;20167;-67
2022/04/16 05:22:52;;;;;;;12.05;8.73;;;;;;;-155.54;100.00;57697.75;5019568;28;20086;-68
2022/04/16 05:25:17;;;;;;;14.30;9.32;;;;;;;-155.54;100.00;57697.75;5010458;28;20070;-69
2022/04/16 05:27:42;;;;;;;13.32;9.85;;;;;;;-155.54;100.00;57697.75;5021058;28;20128;-65
2022/04/16 05:30:13;;;;;;;12.35;8.73;;;;;;;-155.54;100.00;57697.75;5021722;28;20118;-68
2022/04/16 05:32:42;;;;;;;10.80;8.02;;;;;;;-155.54;100.00;57697.75;4996213;28;20330;-68
2022/04/16 05:35:09;;;;;;;11.20;8.15;;;;;;;-155.54;100.00;57697.75;5008950;28;20354;-66
2022/04/16 05:37:34;;;;;;;13.25;8.35;;;;;;;-155.54;100.00;57697.75;5037951;28;20171;-66
2022/04/16 05:40:00;;;;;;;12.43;8.82;;;;;;;-155.54;100.00;57697.75;5004724;28;20632;-69
2022/04/16 05:42:26;;;;;;;10.80;8.45;;;;;;;-155.54;100.00;57697.75;4988272;28;20194;-69
2022/04/16 05:44:51;;;;;;;14.40;9.50;;;;;;;-155.54;100.00;57697.75;5005240;28;20098;-67
2022/04/16 05:47:17;;;;;;;13.20;9.27;;;;;;;-155.54;100.00;57697.75;5005119;28;20117;-66
2022/04/16 05:49:42;;;;;;;13.32;9.55;;;;;;;-155.54;100.00;57697.75;5005946;28;20086;-67
2022/04/16 05:52:07;;;;;;;13.68;9.13;;;;;;;-155.54;100.00;57697.75;5004787;28;20122;-67
2022/04/16 05:54:34;;;;;;;12.27;9.10;;;;;;;-155.54;100.00;57697.75;5004762;28;20752;-66
2022/04/16 05:57:00;;;;;;;12.18;8.38;;;;;;;-155.54;100.00;57697.75;5019707;28;20582;-68
2022/04/16 05:59:26;;;;;;;12.93;9.02;;;;;;;-155.54;100.00;57697.75;5006624;28;20129;-68
2022/04/16 06:01:51;;;;;;;13.10;8.45;;;;;;;-155.54;100.00;57697.75;5005645;28;20467;-65
2022/04/16 06:04:17;;;;;;;12.43;8.80;;;;;;;-155.54;100.00;57697.75;5016551;28;20105;-65
2022/04/16 06:06:43;;;;;;;12.20;9.05;;;;;;;-155.54;100.00;57697.75;5028619;28;20085;-65
2022/04/16 06:09:08;;;;;;;13.43;8.48;;;;;;;-155.54;100.00;57697.75;4988572;28;20079;-68
2022/04/16 06:11:34;;;;;;;13.32;8.88;;;;;;;-155.54;100.00;57697.75;4991440;28;20115;-69
2022/04/16 06:13:59;;;;;;;11.27;8.57;;;;;;;-155.54;100.00;57697.75;5002171;28;20552;-67
2022/04/16 06:16:24;;;;;;;15.75;9.80;;;;;;;-155.54;100.00;57697.75;5005003;28;20105;-66
2022/04/16 06:18:50;;;;;;;14.80;8.65;;;;;;;-155.54;100.00;57697.75;4996863;28;20087;-65
2022/04/16 06:21:15;;;;;;;13.75;9.02;;;;;;;-155.54;100.00;57697.75;4995840;28;20371;-68
2022/04/16 06:23:41;;;;;;;10.20;7.53;;;;;;;-155.54;100.00;57697.75;5013257;28;20566;-67
2022/04/16 06:26:06;;;;;;;11.32;8.43;;;;;;;-155.54;100.00;57697.75;5024968;28;20090;-68
2022/04/16 06:28:31;;;;;;;10.88;7.88;;;;;;;-155.54;100.00;57697.75;5034325;28;20434;-66
2022/04/16 06:30:57;;;;;;;10.57;7.90;;;;;;;-155.54;100.00;57697.75;5035105;28;20544;-65
2022/04/16 06:33:22;;;;;;;10.70;7.72;;;;;;;-155.54;100.00;57697.75;5040499;28;20567;-68
2022/04/16 06:35:48;;;;;;;8.57;6.68;;;;;;;-155.54;100.00;57697.75;5031106;28;20109;-67
2022/04/16 06:38:13;;;;;;;10.57;7.15;;;;;;;-155.54;100.00;57697.75;5036016;28;20095;-67
2022/04/16 06:40:38;;;;;;;9.70;7.32;;;;;;;-155.54;100.00;57697.75;4988308;28;20588;-64
2022/04/16 06:43:04;;;;;;;10.00;7.25;;;;;;;-155.54;100.00;57697.75;4988527;28;20110;-67
2022/04/16 06:45:30;;;;;;;9.15;6.93;;;;;;;-155.54;100.00;57697.75;5003970;28;20098;-67
2022/04/16 06:47:55;;;;;;;10.27;7.28;;;;;;;-155.54;100.00;57697.75;4997669;28;20110;-66
2022/04/16 06:50:21;;;;;;;11.15;7.72;;;;;;;-155.54;100.00;57697.75;5002106;28;20089;-66
2022/04/16 06:52:46;;;;;;;11.60;7.53;;;;;;;-155.54;100.00;57697.75;4992791;28;20106;-68
2022/04/16 06:55:12;;;;;;;10.57;7.90;;;;;;;-155.54;100.00;57697.75;5003760;28;20105;-66
2022/04/16 06:57:37;;;;;;;10.63;7.03;;;;;;;-155.54;100.00;57697.75;5017460;28;20085;-68
2022/04/16 07:00:05;;;;;;;8.80;7.15;;;;;;;-155.54;100.00;57697.75;5013969;28;20587;-67
2022/04/16 07:02:30;;;;;;;9.23;6.78;;;;;;;-155.54;100.00;57697.75;5022765;28;20635;-67
2022/04/16 07:04:56;;;;;;;8.48;6.50;;;;;;;-155.54;100.00;57697.75;5024081;28;20141;-66
2022/04/16 07:07:21;;;;;;;9.18;6.70;;;;;;;-155.54;100.00;57697.75;5023714;28;20436;-68
2022/04/16 07:09:47;;;;;;;8.82;6.43;;;;;;;-155.54;100.00;57697.75;5011549;28;20077;-67
2022/04/16 07:12:12;;;;;;;9.07;6.20;;;;;;;-155.54;100.00;57697.75;5023361;28;20101;-66
2022/04/16 07:14:38;;;;;;;9.45;6.43;;;;;;;-155.54;100.00;57697.75;5023943;28;20497;-68
2022/04/16 07:17:04;;;;;;;7.00;5.60;;;;;;;-155.54;100.00;57697.75;5020667;28;20090;-67
2022/04/16 07:19:30;;;;;;;8.60;6.00;;;;;;;-155.54;100.00;57697.75;5020241;28;20124;-68
2022/04/16 07:21:55;;;;;;;7.68;5.40;;;;;;;-155.54;100.00;57697.75;5005334;28;20487;-68
2022/04/16 07:24:22;;;;;;;8.32;5.72;;;;;;;-155.54;100.00;57697.75;5009299;28;20524;-68
2022/04/16 07:26:47;;;;;;;8.40;5.45;;;;;;;-155.54;100.00;57697.75;5004894;28;20407;-67
2022/04/16 07:29:13;;;;;;;7.57;5.32;;;;;;;-155.54;100.00;57697.75;5004204;28;20079;-68
2022/04/16 07:31:39;;;;;;;6.85;5.03;;;;;;;-155.54;100.00;57697.75;5012986;28;20125;-68
2022/04/16 07:34:04;;;;;;;8.57;5.80;;;;;;;-155.54;100.00;57697.75;5019442;28;20079;-67
2022/04/16 07:36:30;;;;;;;7.30;5.25;;;;;;;-155.54;100.00;57697.75;5018917;28;20138;-69
2022/04/16 07:38:55;;;;;;;8.85;5.80;;;;;;;-155.54;100.00;57697.75;5013935;28;20079;-66
2022/04/16 07:41:21;;;;;;;8.70;5.78;;;;;;;-155.54;100.00;57697.75;5019071;28;20097;-66
2022/04/16 07:43:46;;;;;;;7.00;5.07;;;;;;;-155.54;100.00;57697.75;5010950;28;20148;-68
2022/04/16 07:46:11;;;;;;;7.93;5.65;;;;;;;-155.54;100.00;57697.75;4999874;28;20676;-67
2022/04/16 07:48:37;;;;;;;8.15;5.55;;;;;;;-155.54;100.00;57697.75;5017785;28;20101;-68
2022/04/16 07:51:04;;;;;;;7.57;5.85;;;;;;;-155.54;100.00;57697.75;5015679;28;20178;-69
2022/04/16 07:53:30;;;;;;;7.75;5.68;;;;;;;-155.54;100.00;57697.75;5018739;28;20085;-68
2022/04/16 07:55:55;;;;;;;7.28;5.38;;;;;;;-155.54;100.00;57697.75;5018674;28;20104;-68
2022/04/16 07:58:21;;;;;;;5.93;4.88;;;;;;;-155.54;100.00;57697.75;5018769;28;20083;-66
2022/04/16 08:00:46;;;;;;;7.20;5.10;;;;;;;-155.54;100.00;57697.75;5018154;28;20574;-68
2022/04/16 08:03:11;;;;;;;7.85;4.82;;;;;;;-155.54;100.00;57697.75;5017729;28;20104;-68
2022/04/16 08:05:37;;;;;;;5.82;4.72;;;;;;;-155.54;100.00;57697.75;5018652;28;20079;-67
2022/04/16 08:08:04;;;;;;;6.20;4.75;;;;;;;-155.54;100.00;57697.75;5014364;28;20535;-67
2022/04/16 08:10:30;;;;;;;5.80;4.60;;;;;;;-155.54;100.00;57697.75;5011082;28;20162;-66
2022/04/16 08:12:55;;;;;;;6.18;4.47;;;;;;;-155.54;100.00;57697.75;5017423;28;20100;-68
2022/04/16 08:15:21;;;;;;;5.45;3.90;;;;;;;-155.54;100.00;57697.75;5018125;28;20626;-68
2022/04/16 08:17:46;;;;;;;5.43;4.00;;;;;;;-155.54;100.00;57697.75;5016506;28;20090;-69
2022/04/16 08:20:11;;;;;;;4.63;3.50;;;;;;;-155.54;100.00;57697.75;5004805;28;20181;-68
2022/04/16 08:22:40;;;;;;;4.65;3.50;;;;;;;-155.54;100.00;57697.75;5017687;28;20077;-67
2022/04/16 08:27:47;;;;;;;4.97;4.00;;;;;;;-155.54;100.00;57697.75;5017798;28;20094;-69
2022/04/16 08:30:13;;;;;;;4.15;3.42;;;;;;;-155.54;100.00;57697.75;5017322;28;20129;-66
2022/04/16 08:32:41;;;;;;;5.53;3.78;;;;;;;-155.54;100.00;57697.75;5017339;28;20094;-68
2022/04/16 08:35:07;;;;;;;6.03;3.95;;;;;;;-155.54;100.00;57697.75;5017038;28;20094;-69
2022/04/16 08:37:33;;;;;;;4.85;3.60;;;;;;;-155.54;100.00;57697.75;5017824;28;20534;-67
2022/04/16 08:40:00;;;;;;;4.55;3.60;;;;;;;-155.54;100.00;57697.75;5012487;28;20104;-68
2022/04/16 08:42:25;;;;;;;5.43;3.65;;;;;;;-155.54;100.00;57697.75;5017754;28;20085;-69
2022/04/16 08:44:50;;;;;;;7.05;3.88;;;;;;;-155.54;100.00;57697.75;5015446;28;20086;-67
2022/04/16 08:47:16;;;;;;;4.80;3.58;;;;;;;-155.54;100.00;57697.75;4999327;28;20086;-67
2022/04/16 08:49:42;;;;;;;4.90;3.47;;;;;;;-155.54;100.00;57697.75;4999192;28;20344;-68
2022/04/16 08:52:08;;;;;;;5.05;3.90;;;;;;;-155.54;100.00;57697.75;5017129;28;20096;-69
2022/04/16 08:54:35;;;;;;;5.82;4.10;;;;;;;-155.54;100.00;57697.75;5017634;28;20069;-68
2022/04/16 08:57:01;;;;;;;4.00;3.50;;;;;;;-155.54;100.00;57697.75;5015430;28;20069;-68
2022/04/16 08:59:26;;;;;;;5.10;4.10;;;;;;;-155.54;100.00;57697.75;5017493;28;20479;-66
2022/04/16 09:01:51;;;;;;;4.15;3.42;;;;;;;-155.54;100.00;57697.75;5019313;28;20081;-65
2022/04/16 09:04:21;;;;;;;4.78;3.80;;;;;;;-155.54;100.00;57697.75;5001805;28;20083;-65
2022/04/16 09:07:00;;;;;;;5.43;3.95;;;;;;;-155.54;100.00;57697.75;5018884;28;20427;-67
2022/04/16 09:09:25;;;;;;;5.35;3.70;;;;;;;-155.54;100.00;57697.75;5001835;28;20067;-66
2022/04/16 09:11:51;;;;;;;4.55;3.92;;;;;;;-155.54;100.00;57697.75;5006613;28;20542;-66
2022/04/16 09:14:16;;;;;;;5.97;3.78;;;;;;;-155.54;100.00;57697.75;5019764;28;20063;-65
2022/04/16 09:16:42;;;;;;;4.78;3.65;;;;;;;-155.54;100.00;57697.75;5016674;28;20282;-67
2022/04/16 09:19:17;;;;;;;4.80;3.67;;;;;;;-155.54;100.00;57697.75;5012658;28;20089;-64
2022/04/16 09:21:43;;;;;;;4.88;3.70;;;;;;;-155.54;100.00;57697.75;5009184;28;20220;-66
2022/04/16 09:24:09;;;;;;;5.32;3.70;;;;;;;-155.54;100.00;57697.75;5015507;28;20088;-66
2022/04/16 09:26:35;;;;;;;5.25;3.80;;;;;;;-155.54;100.00;57697.75;5017202;28;20086;-65
2022/04/16 09:29:18;;;;;;;4.80;3.85;;;;;;;-155.54;100.00;57697.75;5016760;28;20161;-66
2022/04/16 09:31:48;;;;;;;4.72;3.38;;;;;;;-155.54;100.00;57697.75;5016078;28;20202;-66
2022/04/16 09:34:18;;;;;;;4.78;3.63;;;;;;;-155.54;100.00;57697.75;5017111;28;20441;-66
2022/04/16 09:36:46;;;;;;;5.10;3.53;;;;;;;-155.54;100.00;57697.75;4997201;28;20407;-66
2022/04/16 09:39:12;;;;;;;4.35;3.70;;;;;;;-155.54;100.00;57697.75;4997022;28;20083;-65
2022/04/16 09:41:41;;;;;;;4.22;3.13;;;;;;;-155.54;100.00;57697.75;4996769;28;20435;-66
2022/04/16 09:44:17;;;;;;;4.03;3.20;;;;;;;-155.54;100.00;57697.75;4996725;28;20122;-67
2022/04/16 09:46:44;;;;;;;4.28;3.33;;;;;;;-155.54;100.00;57697.75;4995546;28;20122;-68
2022/04/16 09:49:09;;;;;;;4.47;3.47;;;;;;;-155.54;100.00;57697.75;4995409;28;20076;-66
2022/04/16 09:51:35;;;;;;;4.57;3.50;;;;;;;-155.54;100.00;57697.75;4980610;28;20071;-65
2022/04/16 09:54:09;;;;;;;4.60;3.60;;;;;;;-155.54;100.00;57697.75;4999736;28;20416;-67
2022/04/16 09:56:36;;;;;;;4.95;3.60;;;;;;;-155.54;100.00;57697.75;4998894;28;20081;-64
2022/04/16 09:59:08;;;;;;;5.60;3.35;;;;;;;-155.54;100.00;57697.75;4994989;28;20519;-65
2022/04/16 10:01:35;;;;;;;4.57;3.22;;;;;;;-155.54;100.00;57697.75;4978883;28;20080;-67
2022/04/16 10:04:00;;;;;;;4.47;3.10;;;;;;;-155.54;100.00;57697.75;4978235;28;20079;-66
2022/04/16 10:06:28;;;;;;;3.92;2.90;;;;;;;-155.54;100.00;57697.75;4996944;28;20088;-66
2022/04/16 10:08:53;;;;;;;3.83;2.63;;;;;;;-155.54;100.00;57697.75;5004632;28;20167;-67
2022/04/16 10:11:41;;;;;;;4.55;3.00;;;;;;;-155.54;100.00;57697.75;5020776;28;20412;-67
2022/04/16 10:14:09;;;;;;;4.28;2.95;;;;;;;-155.54;100.00;57697.75;5034302;28;20751;-67
2022/04/16 10:16:39;;;;;;;5.30;3.40;;;;;;;-155.54;100.00;57697.75;5032624;28;20547;-67
2022/04/16 10:19:17;;;;;;;4.07;2.90;;;;;;;-155.54;100.00;57697.75;5006858;28;20534;-67
2022/04/16 10:21:42;;;;;;;3.88;2.97;;;;;;;-155.54;100.00;57697.75;4992341;28;20059;-69
2022/04/16 10:24:08;;;;;;;5.30;2.80;;;;;;;-155.54;100.00;57697.75;5011365;28;20504;-68
2022/04/16 10:26:43;;;;;;;4.35;3.10;;;;;;;-155.54;100.00;57697.75;5038455;28;20117;-68
2022/04/16 10:29:08;;;;;;;5.07;3.20;;;;;;;-155.54;100.00;57697.75;5028097;28;20080;-69
2022/04/16 10:31:34;;;;;;;4.53;3.10;;;;;;;-155.54;100.00;57697.75;5012784;28;20154;-68
2022/04/16 10:34:09;;;;;;;3.95;2.85;;;;;;;-155.54;100.00;57697.75;4979896;28;20512;-68
2022/04/16 10:36:43;;;;;;;4.28;2.80;;;;;;;-155.54;100.00;57697.75;5010344;28;20089;-69
2022/04/16 10:39:18;;;;;;;3.30;2.67;;;;;;;-155.54;100.00;57697.75;5009675;28;20070;-68
2022/04/16 10:41:56;;;;;;;4.22;2.90;;;;;;;-155.54;100.00;57697.75;5005890;28;20704;-67
2022/04/16 10:44:21;;;;;;;3.30;2.60;;;;;;;-155.54;100.00;57697.75;5017835;28;20170;-68
2022/04/16 10:46:48;;;;;;;3.33;2.40;;;;;;;-155.54;100.00;57697.75;5018375;28;20584;-65
2022/04/16 10:49:14;;;;;;;3.05;2.40;;;;;;;-155.54;100.00;57697.75;5009208;28;20050;-68
2022/04/16 10:51:40;;;;;;;2.65;2.10;;;;;;;-155.54;100.00;57697.75;5007987;28;20603;-67
2022/04/16 10:54:16;;;;;;;3.03;2.20;;;;;;;-155.54;100.00;57697.75;5000548;28;20181;-66
2022/04/16 10:56:51;;;;;;;4.20;2.83;;;;;;;-155.54;100.00;57697.75;5030632;28;20073;-67
2022/04/16 10:59:16;;;;;;;3.20;2.28;;;;;;;-155.54;100.00;57697.75;5039322;28;20622;-68
2022/04/16 11:01:52;;;;;;;2.50;2.30;;;;;;;-155.54;100.00;57697.75;5025107;28;20067;-67
2022/04/16 11:04:17;;;;;;;3.08;1.92;;;;;;;-155.54;100.00;57697.75;5002925;28;20088;-68
2022/04/16 11:06:47;;;;;;;3.35;2.10;;;;;;;-155.54;100.00;57697.75;4991617;28;20051;-66
2022/04/16 11:09:16;;;;;;;2.67;2.30;;;;;;;-155.54;100.00;57697.75;5007332;28;20047;-67
2022/04/16 11:11:41;;;;;;;2.88;2.60;;;;;;;-155.54;100.00;57697.75;5003927;28;20087;-67